Time;durP1;ratioP1;P1;durP2;ratioP2;P2;SDS_P1;SDS_P2;PMS_P1;PMS_P2;Temp;Humidity;BMP_temperature;BMP_pressure;BME280_temperature;BME280_humidity;BME280_pressure;Samples;Min_cycle;Max_cycle;Signal;HPM_P1;HPM_P2
2023/04/21 00:01:48;;;;;;;2.72;1.95;;;14.00;51.60;;;;;;5126411;27;45340;-71
2023/04/21 00:04:16;;;;;;;2.45;1.95;;;13.90;51.60;;;;;;5126073;27;46368;-72
2023/04/21 00:06:44;;;;;;;2.28;1.63;;;13.90;51.60;;;;;;5126213;27;45310;-72
2023/04/21 00:09:10;;;;;;;2.97;1.73;;;13.90;52.20;;;;;;5128323;27;45324;-72
2023/04/21 00:11:39;;;;;;;4.45;2.13;;;13.90;51.60;;;;;;5129835;27;45358;-72
2023/04/21 00:14:05;;;;;;;3.35;2.00;;;13.90;51.60;;;;;;5129620;27;45462;-72
2023/04/21 00:16:32;;;;;;;3.05;2.28;;;13.80;51.60;;;;;;5129714;27;45192;-72
2023/04/21 00:18:59;;;;;;;1.70;1.60;;;13.80;51.70;;;;;;5129795;27;45202;-73
2023/04/21 00:21:26;;;;;;;2.40;1.90;;;13.80;51.70;;;;;;5129790;27;45273;-72
2023/04/21 00:23:53;;;;;;;2.65;1.70;;;13.70;51.70;;;;;;5129556;27;45496;-73
2023/04/21 00:26:20;;;;;;;2.70;2.00;;;13.70;51.80;;;;;;5129466;27;45336;-71
2023/04/21 00:28:48;;;;;;;1.98;1.70;;;13.70;51.90;;;;;;5129796;27;45280;-73
2023/04/21 00:31:15;;;;;;;3.17;1.92;;;13.70;51.90;;;;;;5129628;27;45455;-71
2023/04/21 00:33:41;;;;;;;2.33;1.70;;;13.60;51.80;;;;;;5129183;27;46660;-72
2023/04/21 00:36:08;;;;;;;2.88;2.13;;;13.60;51.90;;;;;;5129208;27;45317;-72
2023/04/21 00:38:35;;;;;;;3.15;2.05;;;13.60;51.80;;;;;;5129591;27;45233;-72
2023/04/21 00:41:02;;;;;;;2.75;2.10;;;13.60;51.80;;;;;;5129471;27;45395;-72
2023/04/21 00:43:29;;;;;;;2.33;1.90;;;13.50;51.80;;;;;;5129155;27;46990;-71
2023/04/21 00:45:57;;;;;;;2.97;1.80;;;13.50;52.60;;;;;;5128961;27;45380;-72
2023/04/21 00:48:24;;;;;;;2.20;1.50;;;13.50;51.90;;;;;;5129261;27;45344;-72
2023/04/21 00:50:51;;;;;;;2.20;1.70;;;13.50;52.50;;;;;;5129299;27;45373;-72
2023/04/21 00:53:17;;;;;;;2.75;1.85;;;13.50;52.60;;;;;;5120645;27;46683;-72
2023/04/21 00:55:44;;;;;;;1.73;1.63;;;13.40;51.90;;;;;;5128975;27;45349;-72
2023/04/21 00:58:11;;;;;;;2.42;1.90;;;13.40;51.80;;;;;;5129051;27;45357;-72
2023/04/21 01:00:38;;;;;;;2.00;1.90;;;13.40;51.90;;;;;;5129198;27;45406;-72
2023/04/21 01:03:06;;;;;;;2.70;1.73;;;13.40;51.80;;;;;;5128919;27;46425;-72
2023/04/21 01:05:33;;;;;;;2.78;1.90;;;13.40;52.00;;;;;;5128817;27;45188;-71
2023/04/21 01:08:01;;;;;;;2.65;2.10;;;13.40;52.00;;;;;;5129108;27;45296;-72
2023/04/21 01:10:28;;;;;;;2.63;1.90;;;13.30;52.00;;;;;;5128797;27;45470;-72
2023/04/21 01:12:55;;;;;;;2.20;1.80;;;13.30;52.10;;;;;;5128681;27;46378;-72
2023/04/21 01:15:21;;;;;;;2.35;1.67;;;13.20;52.00;;;;;;5128709;27;45255;-72
2023/04/21 01:17:48;;;;;;;2.28;1.63;;;13.20;52.10;;;;;;5128923;27;45220;-72
2023/04/21 01:20:16;;;;;;;2.42;1.77;;;13.20;52.10;;;;;;5127916;27;45343;-71
2023/04/21 01:22:45;;;;;;;2.58;1.90;;;13.20;52.10;;;;;;5128299;27;46830;-72
2023/04/21 01:25:12;;;;;;;1.70;1.50;;;13.10;52.10;;;;;;5128918;27;45190;-72
2023/04/21 01:27:39;;;;;;;3.40;1.80;;;13.10;52.10;;;;;;5128562;27;45175;-72
2023/04/21 01:30:07;;;;;;;2.05;1.80;;;13.10;52.20;;;;;;5128786;27;45373;-72
2023/04/21 01:32:34;;;;;;;2.13;1.70;;;13.10;52.10;;;;;;5128414;27;46569;-72
2023/04/21 01:35:01;;;;;;;1.92;1.70;;;13.10;52.20;;;;;;5128316;27;45287;-72
2023/04/21 01:37:28;;;;;;;3.17;2.00;;;13.10;52.10;;;;;;5128566;27;45165;-72
2023/04/21 01:39:58;;;;;;;2.58;1.75;;;13.10;52.10;;;;;;5128833;27;45522;-72
2023/04/21 01:42:26;;;;;;;3.40;1.90;;;13.10;52.10;;;;;;5128064;27;46508;-71
2023/04/21 01:44:53;;;;;;;3.40;1.55;;;13.10;52.00;;;;;;5127950;27;45253;-72
2023/04/21 01:47:20;;;;;;;2.47;1.50;;;13.10;52.00;;;;;;5128414;27;45142;-71
2023/04/21 01:49:47;;;;;;;4.28;1.95;;;13.10;52.00;;;;;;5128343;27;45322;-72
2023/04/21 01:52:14;;;;;;;1.63;1.27;;;13.00;51.90;;;;;;5128080;27;46755;-72
2023/04/21 01:54:40;;;;;;;2.25;1.63;;;13.00;51.90;;;;;;5127960;27;45279;-71
2023/04/21 01:57:09;;;;;;;3.70;1.80;;;13.00;51.90;;;;;;5128278;27;45253;-72
2023/04/21 01:59:36;;;;;;;1.73;1.55;;;13.00;51.90;;;;;;5128271;27;45378;-71
2023/04/21 02:02:02;;;;;;;2.33;1.45;;;12.90;52.00;;;;;;5127854;27;45391;-72
2023/04/21 02:04:29;;;;;;;1.63;1.50;;;12.90;52.10;;;;;;5127977;27;45361;-71
2023/04/21 02:06:56;;;;;;;2.15;1.60;;;12.90;52.10;;;;;;5127998;27;45118;-72
2023/04/21 02:09:23;;;;;;;1.70;1.60;;;12.90;52.00;;;;;;5128080;27;45261;-72
2023/04/21 02:11:50;;;;;;;2.28;1.50;;;12.90;51.80;;;;;;5127634;27;46453;-71
2023/04/21 02:14:18;;;;;;;2.05;1.38;;;12.90;51.90;;;;;;5127840;27;45292;-72
2023/04/21 02:16:45;;;;;;;1.77;1.40;;;12.90;51.90;;;;;;5127912;27;45320;-72
2023/04/21 02:19:11;;;;;;;1.50;1.40;;;12.90;51.90;;;;;;5127998;27;45295;-72
2023/04/21 02:21:38;;;;;;;2.45;1.60;;;12.90;51.80;;;;;;5127341;27;46699;-72
2023/04/21 02:24:05;;;;;;;1.45;1.35;;;12.90;51.80;;;;;;5127623;27;45198;-72
2023/04/21 02:26:32;;;;;;;2.35;1.67;;;12.90;51.90;;;;;;5127737;27;45351;-72
2023/04/21 02:28:59;;;;;;;2.30;1.75;;;12.80;51.80;;;;;;5127837;27;45512;-71
2023/04/21 02:31:27;;;;;;;1.60;1.48;;;12.80;51.90;;;;;;5127184;27;46852;-71
2023/04/21 02:33:54;;;;;;;1.92;1.55;;;12.80;52.40;;;;;;5127670;27;45210;-71
2023/04/21 02:36:21;;;;;;;2.65;1.67;;;12.80;51.80;;;;;;5127649;27;45287;-72
2023/04/21 02:38:48;;;;;;;1.58;1.48;;;12.80;51.80;;;;;;5127534;27;45561;-72
2023/04/21 02:41:15;;;;;;;2.50;1.55;;;12.80;51.90;;;;;;5127196;27;46675;-72
2023/04/21 02:43:41;;;;;;;2.60;1.45;;;12.70;51.80;;;;;;5127233;27;45389;-72
2023/04/21 02:46:08;;;;;;;2.17;1.50;;;12.70;52.50;;;;;;5127082;27;45333;-71
2023/04/21 02:48:36;;;;;;;1.90;1.40;;;12.70;51.80;;;;;;5127663;27;45106;-72
2023/04/21 02:51:04;;;;;;;2.42;1.30;;;12.70;51.90;;;;;;5127012;27;46675;-71
2023/04/21 02:53:30;;;;;;;2.92;1.40;;;12.60;51.80;;;;;;5127286;27;45335;-72
2023/04/21 02:55:57;;;;;;;2.65;1.52;;;12.60;51.80;;;;;;5127303;27;45281;-72
2023/04/21 02:58:24;;;;;;;2.17;1.40;;;12.60;51.90;;;;;;5127396;27;45446;-72
2023/04/21 03:00:51;;;;;;;1.27;1.17;;;12.60;51.80;;;;;;5126749;27;46888;-72
2023/04/21 03:03:18;;;;;;;2.10;1.65;;;12.50;51.90;;;;;;5127064;27;45309;-72
2023/04/21 03:05:46;;;;;;;2.22;1.40;;;12.50;52.00;;;;;;5127190;27;45328;-72
2023/04/21 03:08:13;;;;;;;1.55;1.45;;;12.50;51.90;;;;;;5127363;27;45118;-73
2023/04/21 03:10:40;;;;;;;1.13;1.02;;;12.50;51.90;;;;;;5126642;27;46697;-73
2023/04/21 03:13:06;;;;;;;3.08;1.38;;;12.50;51.90;;;;;;5126965;27;45132;-71
2023/04/21 03:15:33;;;;;;;1.35;1.20;;;12.50;51.90;;;;;;5127032;27;45359;-71
2023/04/21 03:18:00;;;;;;;2.10;1.58;;;12.40;51.80;;;;;;5126971;27;45412;-71
2023/04/21 03:20:27;;;;;;;1.60;1.10;;;12.40;52.00;;;;;;5126684;27;46581;-72
2023/04/21 03:22:55;;;;;;;1.52;1.30;;;12.40;52.00;;;;;;5126793;27;45142;-72
2023/04/21 03:25:22;;;;;;;2.55;1.63;;;12.40;51.90;;;;;;5127061;27;45604;-72
2023/04/21 03:27:49;;;;;;;2.55;1.80;;;12.40;52.00;;;;;;5127050;27;45466;-72
2023/04/21 03:30:16;;;;;;;2.65;1.83;;;12.40;51.90;;;;;;5126603;27;45287;-72
2023/04/21 03:32:42;;;;;;;3.90;2.03;;;12.40;51.90;;;;;;5126661;27;45275;-72
2023/04/21 03:35:09;;;;;;;2.30;1.77;;;12.30;51.80;;;;;;5126619;27;45198;-71
2023/04/21 03:37:36;;;;;;;3.72;1.90;;;12.30;51.90;;;;;;5126978;27;45253;-71
2023/04/21 03:40:06;;;;;;;2.00;1.60;;;12.30;52.00;;;;;;5126324;27;46843;-72
2023/04/21 03:42:32;;;;;;;2.33;1.58;;;12.30;51.90;;;;;;5126547;27;45235;-72
2023/04/21 03:45:02;;;;;;;2.35;1.63;;;12.30;52.00;;;;;;5129809;27;45253;-72
2023/04/21 03:47:28;;;;;;;2.38;1.55;;;12.30;51.90;;;;;;5130528;27;45544;-71
2023/04/21 03:49:55;;;;;;;2.03;1.58;;;12.30;52.00;;;;;;5130029;27;45478;-72
2023/04/21 03:52:22;;;;;;;1.67;1.50;;;12.30;51.90;;;;;;5129864;27;45361;-72
2023/04/21 03:54:49;;;;;;;1.83;1.50;;;12.30;52.00;;;;;;5130228;27;45178;-71
2023/04/21 03:57:17;;;;;;;2.83;1.63;;;12.20;51.90;;;;;;5130500;27;45277;-72
2023/04/21 03:59:44;;;;;;;2.22;1.38;;;12.20;51.80;;;;;;5129861;27;45343;-71
2023/04/21 04:02:11;;;;;;;3.47;1.60;;;12.20;51.90;;;;;;5129891;27;45369;-72
2023/04/21 04:04:37;;;;;;;2.57;1.37;;;12.20;52.00;;;;;;5130027;27;45377;-72
2023/04/21 04:07:06;;;;;;;2.80;1.73;;;12.20;51.90;;;;;;5130165;27;45416;-72
2023/04/21 04:09:33;;;;;;;1.98;1.45;;;12.10;52.00;;;;;;5129784;27;46592;-71
2023/04/21 04:12:02;;;;;;;3.05;1.40;;;12.10;51.90;;;;;;5129625;27;45440;-71
2023/04/21 04:14:30;;;;;;;1.60;1.50;;;12.10;52.00;;;;;;5129798;27;45193;-71
2023/04/21 04:16:58;;;;;;;2.53;1.40;;;12.10;52.00;;;;;;5129924;27;45145;-72
2023/04/21 04:19:30;;;;;;;4.75;1.67;;;12.10;52.00;;;;;;5129600;27;45367;-72
2023/04/21 04:21:58;;;;;;;1.60;1.20;;;12.00;52.00;;;;;;5129506;27;45338;-71
2023/04/21 04:24:25;;;;;;;1.97;1.50;;;12.00;52.00;;;;;;5129773;27;45419;-72
2023/04/21 04:26:53;;;;;;;3.33;1.58;;;12.00;52.00;;;;;;5129748;27;45431;-71
2023/04/21 04:29:20;;;;;;;2.60;1.55;;;12.00;52.00;;;;;;5129442;27;45795;-71
2023/04/21 04:31:49;;;;;;;2.83;1.50;;;12.00;52.10;;;;;;5129258;27;45219;-71
2023/04/21 04:34:16;;;;;;;2.22;1.08;;;12.00;52.00;;;;;;5129401;27;45335;-72
2023/04/21 04:36:56;;;;;;;1.50;1.40;;;12.00;51.90;;;;;;5129702;27;45225;-72
2023/04/21 04:39:23;;;;;;;2.57;1.53;;;12.00;52.00;;;;;;5129287;27;46824;-72
2023/04/21 04:41:51;;;;;;;2.50;1.60;;;12.00;52.00;;;;;;5129180;27;45341;-72
2023/04/21 04:44:18;;;;;;;1.93;1.30;;;11.90;51.90;;;;;;5129495;27;45360;-71
2023/04/21 04:46:45;;;;;;;1.30;1.20;;;11.90;51.90;;;;;;5129425;27;45244;-72
2023/04/21 04:49:14;;;;;;;1.60;1.30;;;11.90;52.00;;;;;;5128984;27;45606;-72
2023/04/21 04:51:41;;;;;;;1.48;1.38;;;11.90;52.00;;;;;;5129283;27;45395;-71
2023/04/21 04:54:07;;;;;;;1.63;1.40;;;11.90;52.10;;;;;;5129100;27;45337;-71
2023/04/21 04:56:34;;;;;;;1.98;1.50;;;11.80;52.00;;;;;;5128196;27;45154;-72
2023/04/21 04:59:01;;;;;;;1.50;1.23;;;11.80;51.90;;;;;;5129060;27;46417;-72
2023/04/21 05:01:29;;;;;;;1.40;1.20;;;11.80;52.00;;;;;;5128920;27;45134;-72
2023/04/21 05:03:56;;;;;;;1.67;1.30;;;11.80;52.00;;;;;;5129067;27;45453;-72
2023/04/21 05:06:24;;;;;;;1.53;1.27;;;11.80;52.10;;;;;;5129161;27;45285;-72
2023/04/21 05:08:51;;;;;;;2.03;1.40;;;11.80;52.70;;;;;;5128741;27;47256;-71
2023/04/21 05:11:18;;;;;;;1.30;1.20;;;11.80;52.10;;;;;;5128724;27;45437;-72
2023/04/21 05:13:45;;;;;;;1.83;1.20;;;11.80;52.10;;;;;;5128967;27;45308;-72
2023/04/21 05:16:12;;;;;;;1.90;1.20;;;11.70;52.00;;;;;;5128994;27;45331;-72
2023/04/21 05:18:38;;;;;;;1.83;1.40;;;11.80;52.10;;;;;;5128549;27;46693;-72
2023/04/21 05:21:06;;;;;;;2.10;1.40;;;11.70;52.00;;;;;;5128732;27;45252;-72
2023/04/21 05:23:34;;;;;;;1.30;1.20;;;11.80;52.00;;;;;;5128721;27;45176;-72
2023/04/21 05:26:01;;;;;;;3.57;1.33;;;11.70;52.00;;;;;;5128919;27;45557;-72
2023/04/21 05:28:28;;;;;;;1.17;1.03;;;11.70;51.90;;;;;;5128361;27;46352;-72
2023/04/21 05:30:55;;;;;;;2.03;1.20;;;11.70;52.00;;;;;;5128504;27;45098;-72
2023/04/21 05:33:22;;;;;;;1.40;1.30;;;11.70;52.00;;;;;;5128606;27;45138;-72
2023/04/21 05:35:49;;;;;;;1.50;1.10;;;11.70;52.00;;;;;;5128709;27;45508;-72
2023/04/21 05:38:16;;;;;;;1.40;1.30;;;11.70;52.00;;;;;;5128205;27;47508;-72
2023/04/21 05:40:44;;;;;;;0.90;0.90;;;11.70;52.00;;;;;;5127761;27;45288;-71
2023/04/21 05:43:11;;;;;;;1.63;1.27;;;11.70;52.00;;;;;;5128452;27;45261;-72
2023/04/21 05:45:40;;;;;;;1.30;1.20;;;11.70;52.00;;;;;;5128438;27;45451;-72
2023/04/21 05:48:07;;;;;;;1.70;1.10;;;11.70;52.00;;;;;;5128156;27;46537;-72
2023/04/21 05:50:34;;;;;;;2.33;1.20;;;11.70;52.00;;;;;;5128029;27;45359;-72
2023/04/21 05:53:01;;;;;;;1.83;1.33;;;11.70;52.00;;;;;;5128219;27;45260;-72
2023/04/21 05:55:27;;;;;;;1.27;1.17;;;11.70;52.00;;;;;;5128414;27;45347;-72
2023/04/21 05:57:56;;;;;;;1.10;1.00;;;11.70;52.00;;;;;;5127836;27;45537;-72
2023/04/21 06:00:23;;;;;;;1.60;1.30;;;11.70;52.00;;;;;;5127902;27;45427;-72
2023/04/21 06:02:49;;;;;;;1.23;1.10;;;11.70;52.00;;;;;;5128135;27;45223;-72
2023/04/21 06:05:16;;;;;;;1.20;1.10;;;11.70;52.00;;;;;;5128162;27;45160;-72
2023/04/21 06:07:43;;;;;;;0.87;0.87;;;11.70;52.00;;;;;;5127414;27;46661;-71
2023/04/21 06:10:11;;;;;;;1.37;1.20;;;11.70;52.00;;;;;;5127635;27;45336;-72
2023/04/21 06:12:37;;;;;;;1.80;1.00;;;11.70;52.00;;;;;;5127904;27;45481;-72
2023/04/21 06:15:07;;;;;;;1.90;1.20;;;11.70;52.00;;;;;;5128105;27;45395;-72
2023/04/21 06:17:34;;;;;;;2.03;1.10;;;11.70;52.00;;;;;;5127792;27;45268;-72
2023/04/21 06:20:00;;;;;;;2.60;1.17;;;11.80;52.00;;;;;;5127523;27;45371;-72
2023/04/21 06:22:27;;;;;;;1.53;1.40;;;11.80;52.00;;;;;;5127710;27;45367;-72
2023/04/21 06:24:54;;;;;;;1.50;1.27;;;11.80;52.00;;;;;;5127726;27;45375;-72
2023/04/21 06:27:21;;;;;;;1.50;1.20;;;11.80;51.90;;;;;;5127449;27;46741;-72
2023/04/21 06:29:47;;;;;;;0.80;0.80;;;11.80;51.90;;;;;;5127526;27;45186;-73
2023/04/21 06:32:16;;;;;;;1.17;1.07;;;11.80;51.90;;;;;;5127535;27;45386;-72
2023/04/21 06:34:42;;;;;;;1.70;1.30;;;11.80;51.90;;;;;;5127678;27;45328;-72
2023/04/21 06:37:09;;;;;;;1.03;1.00;;;11.80;51.90;;;;;;5127123;27;45327;-72
2023/04/21 06:39:36;;;;;;;1.53;1.30;;;11.80;51.90;;;;;;5127136;27;45422;-72
2023/04/21 06:42:03;;;;;;;1.40;1.30;;;11.80;51.90;;;;;;5127328;27;45399;-72
2023/04/21 06:44:31;;;;;;;1.20;1.00;;;11.80;51.90;;;;;;5127490;27;45554;-71
2023/04/21 06:46:57;;;;;;;1.87;1.10;;;11.90;52.00;;;;;;5127029;27;45376;-72
2023/04/21 06:49:26;;;;;;;1.90;1.20;;;11.90;51.90;;;;;;5127297;27;45287;-72
2023/04/21 06:51:52;;;;;;;1.90;1.10;;;11.90;52.00;;;;;;5127240;27;45162;-73
2023/04/21 06:54:19;;;;;;;1.37;1.10;;;11.90;51.90;;;;;;5127465;27;45344;-72
2023/04/21 06:56:46;;;;;;;1.47;1.00;;;11.90;52.00;;;;;;5126942;27;47557;-72
2023/04/21 06:59:13;;;;;;;1.70;1.10;;;11.90;52.00;;;;;;5126992;27;45320;-72
2023/04/21 07:01:40;;;;;;;1.63;1.20;;;11.90;51.90;;;;;;5127004;27;45251;-72
2023/04/21 07:04:06;;;;;;;1.20;1.10;;;11.90;51.90;;;;;;5124622;27;45255;-72
2023/04/21 07:06:35;;;;;;;1.87;1.40;;;11.90;51.90;;;;;;5126887;27;46416;-72
2023/04/21 07:09:01;;;;;;;1.20;1.10;;;11.90;51.80;;;;;;5126887;27;45312;-72
2023/04/21 07:11:28;;;;;;;1.03;1.00;;;12.00;51.90;;;;;;5126829;27;45393;-72
2023/04/21 07:13:56;;;;;;;1.33;1.10;;;12.00;52.00;;;;;;5127131;27;45457;-72
2023/04/21 07:16:23;;;;;;;2.07;1.10;;;12.00;51.90;;;;;;5126744;27;45493;-72
2023/04/21 07:18:50;;;;;;;1.53;1.07;;;12.00;51.90;;;;;;5125969;27;45386;-73
2023/04/21 07:21:16;;;;;;;2.07;1.17;;;12.00;51.90;;;;;;5127085;27;45374;-73
2023/04/21 07:23:45;;;;;;;1.50;1.20;;;12.00;51.80;;;;;;5126919;27;45427;-72
2023/04/21 07:26:11;;;;;;;1.20;1.10;;;12.10;51.90;;;;;;5126625;27;47345;-71
2023/04/21 07:28:39;;;;;;;1.50;1.30;;;12.10;51.90;;;;;;5126588;27;45238;-73
2023/04/21 07:31:06;;;;;;;1.77;1.37;;;12.10;51.80;;;;;;5126683;27;45394;-72
2023/04/21 07:33:33;;;;;;;1.33;1.23;;;12.10;51.70;;;;;;5126883;27;45425;-72
2023/04/21 07:36:00;;;;;;;1.20;1.10;;;12.10;51.70;;;;;;5126496;27;45305;-72
2023/04/21 07:38:26;;;;;;;1.77;0.87;;;12.20;51.70;;;;;;5126546;27;45245;-72
2023/04/21 07:40:55;;;;;;;1.30;1.20;;;12.20;51.70;;;;;;5126423;27;45285;-72
2023/04/21 07:43:22;;;;;;;1.50;1.30;;;12.20;51.60;;;;;;5126674;27;45355;-72
2023/04/21 07:45:50;;;;;;;1.07;0.97;;;12.20;51.70;;;;;;5125988;27;45474;-72
2023/04/21 07:48:17;;;;;;;1.40;1.30;;;12.20;51.70;;;;;;5126461;27;45170;-72
2023/04/21 07:50:44;;;;;;;1.70;1.17;;;12.30;51.80;;;;;;5126534;27;45237;-72
2023/04/21 07:53:11;;;;;;;1.77;1.33;;;12.30;51.70;;;;;;5126817;27;45278;-72
2023/04/21 07:55:38;;;;;;;1.87;1.53;;;12.30;51.70;;;;;;5126287;27;46345;-72
2023/04/21 07:58:06;;;;;;;2.07;1.20;;;12.30;51.70;;;;;;5126162;27;45301;-72
2023/04/21 08:00:33;;;;;;;1.13;1.07;;;12.30;51.60;;;;;;5126415;27;45138;-73
2023/04/21 08:03:00;;;;;;;1.30;1.13;;;12.30;52.10;;;;;;5126529;27;45467;-72
2023/04/21 08:05:27;;;;;;;1.90;1.43;;;12.30;51.60;;;;;;5126230;27;46407;-72
2023/04/21 08:07:54;;;;;;;1.63;1.30;;;12.40;51.60;;;;;;5126173;27;45327;-72
2023/04/21 08:10:21;;;;;;;1.67;1.30;;;12.40;51.60;;;;;;5126235;27;45287;-72
2023/04/21 08:12:48;;;;;;;1.00;1.00;;;12.40;51.70;;;;;;5126435;27;45171;-72
2023/04/21 08:15:16;;;;;;;1.40;1.30;;;12.40;51.60;;;;;;5125925;27;46674;-72
2023/04/21 08:17:43;;;;;;;1.20;1.10;;;12.40;51.60;;;;;;5125917;27;45340;-72
2023/04/21 08:20:11;;;;;;;1.10;1.10;;;12.40;51.70;;;;;;5126365;27;45281;-72
2023/04/21 08:22:38;;;;;;;1.10;1.00;;;12.40;51.70;;;;;;5126378;27;45383;-72
2023/04/21 08:25:05;;;;;;;1.70;1.20;;;12.50;51.80;;;;;;5126080;27;45324;-72
2023/04/21 08:27:32;;;;;;;1.20;1.10;;;12.50;51.80;;;;;;5125694;27;45468;-72
2023/04/21 08:30:00;;;;;;;1.73;1.20;;;12.50;51.80;;;;;;5127525;27;45401;-72
2023/04/21 08:32:28;;;;;;;1.47;1.00;;;12.50;51.80;;;;;;5129671;27;45292;-72
2023/04/21 08:34:54;;;;;;;1.10;1.00;;;12.50;51.80;;;;;;5129320;27;45448;-72
2023/04/21 08:37:21;;;;;;;1.17;1.10;;;12.50;51.80;;;;;;5129164;27;45262;-72
2023/04/21 08:39:49;;;;;;;1.67;1.30;;;12.60;51.80;;;;;;5129523;27;45326;-72
2023/04/21 08:42:16;;;;;;;3.85;1.35;;;12.60;51.80;;;;;;5129524;27;45312;-72
2023/04/21 08:44:43;;;;;;;1.30;1.20;;;12.60;51.90;;;;;;5128998;27;45349;-72
2023/04/21 08:47:10;;;;;;;1.33;0.90;;;12.60;51.90;;;;;;5129210;27;45376;-72
2023/04/21 08:49:38;;;;;;;1.10;1.00;;;12.70;51.90;;;;;;5129219;27;45345;-72
2023/04/21 08:52:05;;;;;;;1.33;0.90;;;12.70;51.90;;;;;;5129420;27;45182;-72
2023/04/21 08:54:32;;;;;;;1.77;1.10;;;12.70;52.00;;;;;;5126314;27;46145;-72
2023/04/21 08:56:59;;;;;;;2.05;1.08;;;12.70;52.00;;;;;;5129054;27;45134;-72
2023/04/21 08:59:26;;;;;;;1.60;1.10;;;12.80;52.00;;;;;;5129107;27;45398;-73
2023/04/21 09:02:09;;;;;;;1.08;0.98;;;12.80;52.10;;;;;;5129081;27;45417;-72
2023/04/21 09:04:39;;;;;;;1.67;1.07;;;12.80;52.10;;;;;;5128872;27;46508;-72
2023/04/21 09:07:07;;;;;;;1.13;1.00;;;12.80;52.20;;;;;;5128875;27;45354;-73
2023/04/21 09:09:34;;;;;;;1.25;0.80;;;12.80;52.20;;;;;;5129026;27;45199;-72
2023/04/21 09:12:01;;;;;;;0.97;0.90;;;12.90;52.20;;;;;;5129100;27;45337;-72
2023/04/21 09:14:34;;;;;;;4.87;1.13;;;12.90;52.20;;;;;;5128776;27;45462;-74
2023/04/21 09:17:01;;;;;;;1.20;1.10;;;12.90;52.50;;;;;;5128716;27;45438;-71
2023/04/21 09:19:28;;;;;;;9.80;5.55;;;13.00;53.60;;;;;;5128982;27;45372;-68
2023/04/21 09:21:57;;;;;;;9.37;4.80;;;13.10;53.50;;;;;;5128903;27;45416;-69
2023/04/21 09:24:24;;;;;;;6.05;4.47;;;13.10;53.50;;;;;;5128482;27;46497;-73
2023/04/21 09:26:51;;;;;;;11.85;4.60;;;13.20;53.70;;;;;;5128453;27;45348;-72
2023/04/21 09:29:18;;;;;;;5.60;3.80;;;13.30;54.00;;;;;;5128615;27;45487;-71
2023/04/21 09:31:45;;;;;;;8.88;4.18;;;13.40;53.90;;;;;;5128574;27;45390;-72
2023/04/21 09:34:21;;;;;;;9.57;4.32;;;13.50;53.80;;;;;;5128259;27;46421;-72
2023/04/21 09:36:47;;;;;;;8.43;4.65;;;13.60;53.80;;;;;;5128402;27;45314;-74
2023/04/21 09:39:16;;;;;;;10.43;4.60;;;13.70;53.80;;;;;;5128449;27;45223;-69
2023/04/21 09:41:44;;;;;;;8.40;6.68;;;13.80;53.40;;;;;;5127823;27;45293;-71
2023/04/21 09:44:10;;;;;;;7.47;4.70;;;13.90;53.30;;;;;;5128172;27;47518;-72
2023/04/21 09:46:37;;;;;;;7.40;4.65;;;14.00;54.30;;;;;;5128026;27;45414;-72
2023/04/21 09:49:04;;;;;;;25.13;4.63;;;14.10;53.50;;;;;;5128431;27;45279;-71
2023/04/21 09:51:31;;;;;;;11.63;4.55;;;14.10;53.50;;;;;;5128446;27;45533;-70
2023/04/21 09:53:59;;;;;;;9.38;4.00;;;14.20;53.00;;;;;;5128261;27;47328;-74
2023/04/21 09:56:30;;;;;;;13.10;3.70;;;14.30;53.30;;;;;;5128149;27;45265;-67
2023/04/21 09:58:58;;;;;;;9.65;3.85;;;14.40;52.70;;;;;;5128145;27;45350;-76
2023/04/21 10:01:25;;;;;;;6.18;3.42;;;14.40;52.70;;;;;;5128090;27;45439;-75
2023/04/21 10:03:52;;;;;;;13.82;3.67;;;14.50;52.90;;;;;;5127915;27;47266;-70
2023/04/21 10:06:19;;;;;;;17.02;5.00;;;14.60;52.90;;;;;;5128176;27;45351;-75
2023/04/21 10:08:45;;;;;;;12.13;6.32;;;14.70;52.90;;;;;;5127922;27;45322;-72
2023/04/21 10:11:12;;;;;;;5.60;2.53;;;14.70;52.40;;;;;;5128076;27;45432;-71
2023/04/21 10:13:41;;;;;;;5.45;3.35;;;14.80;50.70;;;;;;5127742;27;46437;-71
2023/04/21 10:16:08;;;;;;;3.92;2.70;;;14.80;50.60;;;;;;5127828;27;45261;-71
2023/04/21 10:18:36;;;;;;;6.10;2.70;;;14.70;50.60;;;;;;5120557;27;45288;-71
2023/04/21 10:21:04;;;;;;;2.22;2.00;;;14.70;50.70;;;;;;5114386;27;45692;-71
2023/04/21 10:23:33;;;;;;;6.82;3.10;;;14.70;50.70;;;;;;5139786;27;46640;-71
2023/04/21 10:26:05;;;;;;;8.50;2.63;;;14.70;50.70;;;;;;5128071;27;45273;-71
2023/04/21 10:28:47;;;;;;;4.80;2.50;;;14.80;50.80;;;;;;5109286;27;45347;-72
2023/04/21 10:31:29;;;;;;;4.40;2.20;;;14.80;51.00;;;;;;5135768;27;45414;-71
2023/04/21 10:34:15;;;;;;;4.35;2.50;;;14.80;51.20;;;;;;5127322;27;46358;-71
2023/04/21 10:36:43;;;;;;;3.72;2.15;;;14.80;51.30;;;;;;5120195;27;45357;-71
2023/04/21 10:39:11;;;;;;;3.13;2.70;;;14.80;51.30;;;;;;5129360;27;45512;-71
2023/04/21 10:41:38;;;;;;;4.00;2.75;;;14.80;51.20;;;;;;5132967;27;45572;-71
2023/04/21 10:44:13;;;;;;;4.40;2.45;;;14.90;51.30;;;;;;5127324;27;46327;-71
2023/04/21 10:46:40;;;;;;;3.90;2.70;;;14.90;51.30;;;;;;5120242;27;45491;-71
2023/04/21 10:49:08;;;;;;;3.03;2.25;;;14.90;51.30;;;;;;5134442;27;45300;-72
2023/04/21 10:51:58;;;;;;;2.58;2.28;;;15.00;51.30;;;;;;5124644;27;45434;-72
2023/04/21 10:54:25;;;;;;;4.20;2.47;;;15.00;51.40;;;;;;5096587;27;47282;-71
2023/04/21 10:56:52;;;;;;;5.22;1.90;;;15.10;51.70;;;;;;5138929;27;45492;-72
2023/04/21 10:59:20;;;;;;;2.65;2.28;;;15.20;51.70;;;;;;5137853;27;45389;-71
2023/04/21 11:01:47;;;;;;;4.55;2.00;;;15.20;51.60;;;;;;5128381;27;45580;-71
2023/04/21 11:04:14;;;;;;;4.25;2.10;;;15.30;51.90;;;;;;5122305;27;45321;-71
2023/04/21 11:06:41;;;;;;;2.83;2.20;;;15.30;51.80;;;;;;5129089;27;45503;-71
2023/04/21 11:09:08;;;;;;;3.58;2.10;;;15.30;51.90;;;;;;5120496;27;45324;-71
2023/04/21 11:11:35;;;;;;;2.13;1.90;;;15.40;51.80;;;;;;5132856;27;45367;-71
2023/04/21 11:14:02;;;;;;;3.10;1.90;;;15.50;51.80;;;;;;5118217;27;45491;-71
2023/04/21 11:16:30;;;;;;;2.35;2.15;;;15.60;51.80;;;;;;5135033;27;45303;-71
2023/04/21 11:18:57;;;;;;;3.40;2.20;;;15.70;51.80;;;;;;5135337;27;45379;-71
2023/04/21 11:21:24;;;;;;;2.50;1.80;;;15.70;51.70;;;;;;5134522;27;45476;-71
2023/04/21 11:23:52;;;;;;;3.60;2.10;;;15.80;51.70;;;;;;5126265;27;47330;-71
2023/04/21 11:26:19;;;;;;;2.38;2.08;;;15.80;51.50;;;;;;5122640;27;45340;-71
2023/04/21 11:28:49;;;;;;;5.47;2.60;;;15.80;51.60;;;;;;5130704;27;45515;-72
2023/04/21 11:31:16;;;;;;;2.20;1.85;;;15.80;51.80;;;;;;5121280;27;45413;-72
2023/04/21 11:33:44;;;;;;;2.50;2.03;;;15.80;51.90;;;;;;5131229;27;46361;-71
2023/04/21 11:36:11;;;;;;;2.80;1.80;;;15.90;51.80;;;;;;5126532;27;45248;-71
2023/04/21 11:38:39;;;;;;;2.25;2.03;;;16.00;51.80;;;;;;5120066;27;45204;-71
2023/04/21 11:41:06;;;;;;;4.00;2.50;;;16.10;51.70;;;;;;5133475;27;45537;-71
2023/04/21 11:43:33;;;;;;;2.88;2.08;;;16.20;51.50;;;;;;5123243;27;46661;-71
2023/04/21 11:46:12;;;;;;;3.05;2.28;;;16.30;51.40;;;;;;5145595;27;45306;-71
2023/04/21 11:48:39;;;;;;;4.93;1.95;;;16.40;51.20;;;;;;5119690;27;45286;-71
2023/04/21 11:51:14;;;;;;;3.60;2.10;;;16.40;51.30;;;;;;5133083;27;45435;-71
2023/04/21 11:53:41;;;;;;;1.73;1.63;;;16.40;51.30;;;;;;5124327;27;46648;-71
2023/04/21 11:56:09;;;;;;;2.35;2.08;;;16.50;51.10;;;;;;5116111;27;45332;-69
2023/04/21 11:58:36;;;;;;;6.13;2.70;;;16.50;51.20;;;;;;5134632;27;45223;-70
2023/04/21 12:01:07;;;;;;;4.57;2.85;;;16.50;51.70;;;;;;5117994;27;45400;-72
2023/04/21 12:03:34;;;;;;;4.13;2.97;;;16.50;51.90;;;;;;5130813;27;45586;-72
2023/04/21 12:06:01;;;;;;;3.33;2.88;;;16.40;52.10;;;;;;5148419;27;45339;-72
2023/04/21 12:08:31;;;;;;;6.13;3.10;;;16.50;52.60;;;;;;5132073;27;45663;-71
2023/04/21 12:10:58;;;;;;;4.43;3.10;;;16.50;52.80;;;;;;5131520;27;45224;-71
2023/04/21 12:13:25;;;;;;;6.50;3.08;;;16.50;52.70;;;;;;5120516;27;46694;-69
2023/04/21 12:15:51;;;;;;;7.93;3.35;;;16.50;52.40;;;;;;5129935;27;45478;-72
2023/04/21 12:18:18;;;;;;;5.78;3.33;;;16.50;52.50;;;;;;5119863;27;45623;-72
2023/04/21 12:20:49;;;;;;;4.22;3.65;;;16.50;52.30;;;;;;5126724;27;45556;-71
2023/04/21 12:23:16;;;;;;;5.10;3.50;;;16.50;52.60;;;;;;5112116;27;46659;-71
2023/04/21 12:25:45;;;;;;;5.13;3.28;;;16.50;52.40;;;;;;5108901;27;45582;-71
2023/04/21 12:28:13;;;;;;;4.90;3.20;;;16.40;52.40;;;;;;5123344;27;45531;-71
2023/04/21 12:30:40;;;;;;;4.72;3.28;;;16.50;52.60;;;;;;5108938;27;45441;-71
2023/04/21 12:33:07;;;;;;;6.97;2.97;;;16.50;52.90;;;;;;5117069;27;46377;-71
2023/04/21 12:35:34;;;;;;;3.53;3.15;;;16.50;53.10;;;;;;5112527;27;45459;-71
2023/04/21 12:38:01;;;;;;;3.65;3.35;;;16.50;52.90;;;;;;5107117;27;45417;-69
2023/04/21 12:40:28;;;;;;;5.97;2.80;;;16.50;53.00;;;;;;5115856;27;45267;-70
2023/04/21 12:42:56;;;;;;;3.45;3.05;;;16.50;53.10;;;;;;5110582;27;46437;-72
2023/04/21 12:45:23;;;;;;;6.90;3.00;;;16.50;53.10;;;;;;5111668;27;45629;-71
2023/04/21 12:47:50;;;;;;;5.65;2.65;;;16.50;53.10;;;;;;5122857;27;45433;-72